Coastal Nomad — WDC6439 — position and weather

sailwx.info

Track history (hours):
 
Tides and Currents Weather Stations Pressure Air Temp Water Temp Dewpoint Dewpoint Depression Visibility Wind Speed Wind Dir Waves Ship Positions

Coastal Nomad

Owner: Coastal Transportation, Inc., Seattle, WA. More information available from US FCC via Universal Licensing System and Coast Guard Vessel Documentation Center.

Last reported at 2015-Jun-23 20:00 UTC. Time now 2015-Jul-02 08:05 UTC.
Position N 55°42' W 149°00'.
Warning: this ship's position is 8 days out of date.

Length 74 m; draft 4.2 m.

Type: Cargo ship. MMSI: 303683000.

Wind from 120 at 18 knots

Waves 1.0 meters (3 feet)

Barometer 1010.0 mb
Air temperature 11.1 ° C
Visibility: greater than 5.4 NM

Date/timePositionNaut miles runAvg speedWind from/ knotsBaromVisibWave heightAir tempDewpointWater temp
2015-Jun-23 20:00N 55°42' W 149°00'   120 / 181010.0 5.4 1.011.1
2015-Jun-21 00:32N 50°52' W 127°50'1111.8
2015-Jun-20 23:33N 50°48' W 127°33'1111.5
2015-Jun-20 22:33N 50°42' W 127°17'1110.6
2015-Jun-20 21:33N 50°37' W 127°03'1111.2
2015-Jun-20 20:33N 50°33' W 126°46'1312.5
2015-Jun-20 19:30N 50°30' W 126°26'6811.4
2015-Jun-20 13:32N 49°52' W 124°58'1412.2
2015-Jun-20 12:25N 49°43' W 124°41'1212.2
2015-Jun-20 11:28N 49°36' W 124°27'1112.1
2015-Jun-20 10:33N 49°31' W 124°12'1211.9
2015-Jun-20 09:32N 49°23' W 123°57'1111.7
2015-Jun-20 08:34N 49°16' W 123°43'1111.5
2015-Jun-20 07:34N 49°09' W 123°29'1110.9
2015-Jun-20 06:34N 49°02' W 123°17'1111.3
2015-Jun-20 05:33N 48°54' W 123°04'1312.8
2015-Jun-20 04:34N 48°47' W 122°49'1312.5
2015-Jun-20 03:33N 48°34' W 122°45'414.5
2015-Jun-20 03:19N 48°31' W 122°45'1013.6
2015-Jun-20 02:33N 48°21' W 122°45'611.9
2015-Jun-20 02:04N 48°15' W 122°47'5 8.9
2015-Jun-20 01:28N 48°10' W 122°44'7 7.5
2015-Jun-20 00:33N 48°04' W 122°38'1 9.6
2015-Jun-20 00:28N 48°03' W 122°38'8 9.2
2015-Jun-19 23:34N 47°56' W 122°31'0 7.9
2015-Jun-19 23:33N 47°56' W 122°31'1111.1
2015-Jun-19 22:33N 47°46' W 122°26'010.6
2015-Jun-19 22:33N 47°46' W 122°26'6 6.3
2015-Jun-19 21:34N 47°40' W 122°23'0 2.3
2015-Jun-19 21:32N 47°40' W 122°23'1 0.3
2015-Jun-19 19:24N 47°39' W 122°23'0 0.0
2015-Jun-19 18:30N 47°39' W 122°23'0 0.0
2015-Jun-19 18:12N 47°39' W 122°23'0 0.0
2015-Jun-19 17:21N 47°39' W 122°23'0 0.0
2015-Jun-19 17:09N 47°39' W 122°23'0 0.0
2015-Jun-19 16:06N 47°39' W 122°23'0 0.0
2015-Jun-19 16:03N 47°39' W 122°23'0 0.0
2015-Jun-19 15:18N 47°39' W 122°23'0 0.0
2015-Jun-19 15:18N 47°39' W 122°23'0 0.0
2015-Jun-19 14:33N 47°39' W 122°23'0 0.0
2015-Jun-19 13:21N 47°39' W 122°23'0 0.0
2015-Jun-19 12:33N 47°39' W 122°23'0 0.0
2015-Jun-19 11:33N 47°39' W 122°23'0 0.0
2015-Jun-19 11:18N 47°39' W 122°23'0 0.0
2015-Jun-19 10:30N 47°39' W 122°23'0 0.0
2015-Jun-19 09:42N 47°39' W 122°23'0 0.0
2015-Jun-19 09:33N 47°39' W 122°23'0 0.0
2015-Jun-19 09:27N 47°39' W 122°23'0 0.0
2015-Jun-19 08:33N 47°39' W 122°23'0 0.0
2015-Jun-19 08:27N 47°39' W 122°23'0 0.0
2015-Jun-19 07:27N 47°39' W 122°23'0 0.0
2015-Jun-19 07:21N 47°39' W 122°23'0 0.0
2015-Jun-19 06:24N 47°39' W 122°23'0 0.0
2015-Jun-19 05:33N 47°39' W 122°23'0 0.0
2015-Jun-19 05:21N 47°39' W 122°23'0 0.0
2015-Jun-19 04:24N 47°39' W 122°23'0 0.0
2015-Jun-19 03:18N 47°39' W 122°23'0 0.0
2015-Jun-19 02:18N 47°39' W 122°23'0 0.0
2015-Jun-19 01:30N 47°39' W 122°23'0 0.0
2015-Jun-19 00:48N 47°39' W 122°23'0 0.0
2015-Jun-19 00:30N 47°39' W 122°23'0 0.0
2015-Jun-18 23:15N 47°39' W 122°23'0 0.0
2015-Jun-18 23:12N 47°39' W 122°23'0 0.0
2015-Jun-18 22:27N 47°39' W 122°23'0 0.0
2015-Jun-18 22:27N 47°39' W 122°23'0 0.0
2015-Jun-18 21:05N 47°39' W 122°23'0 0.0
2015-Jun-18 15:59N 47°39' W 122°23'0 0.0
2015-Jun-18 14:44N 47°39' W 122°23'0 0.0
2015-Jun-18 14:11N 47°39' W 122°23'0 0.0
2015-Jun-18 11:53N 47°39' W 122°23'0 0.0
2015-Jun-18 05:59N 47°39' W 122°23'0 0.0
2015-Jun-18 05:20N 47°39' W 122°23'0 0.0
2015-Jun-18 02:47N 47°39' W 122°23'0 0.0
2015-Jun-17 17:11N 47°39' W 122°23'0 0.0
2015-Jun-17 15:05N 47°39' W 122°23'0 0.0
2015-Jun-17 14:23N 47°39' W 122°23'0 0.0
2015-Jun-17 13:32N 47°39' W 122°23'0 0.0
2015-Jun-17 12:23N 47°39' W 122°23'0 0.0
2015-Jun-17 11:32N 47°39' W 122°23'0 0.0
2015-Jun-17 11:05N 47°39' W 122°23'0 0.0
2015-Jun-17 10:32N 47°39' W 122°23'0 0.0
2015-Jun-17 10:29N 47°39' W 122°23'0 0.0
2015-Jun-17 09:32N 47°39' W 122°23'0 0.0
2015-Jun-17 08:17N 47°39' W 122°23'0 0.0
2015-Jun-17 07:17N 47°39' W 122°23'0 0.0
2015-Jun-17 03:35N 47°39' W 122°23'0 0.0
2015-Jun-17 03:20N 47°39' W 122°23'0 0.0
2015-Jun-17 02:20N 47°39' W 122°23'0 0.0
2015-Jun-17 00:20N 47°39' W 122°23'0 0.0
2015-Jun-16 23:14N 47°39' W 122°23'0 0.0
2015-Jun-16 23:14N 47°39' W 122°23'0 0.0
2015-Jun-16 22:29N 47°39' W 122°23'0 0.0
2015-Jun-16 22:20N 47°39' W 122°23'0 0.0
2015-Jun-16 20:32N 47°39' W 122°23'0 0.0
2015-Jun-16 20:17N 47°39' W 122°23'0 0.0
2015-Jun-16 19:32N 47°39' W 122°23'0 0.0
2015-Jun-16 19:32N 47°39' W 122°23'0 0.0
2015-Jun-16 18:32N 47°39' W 122°23'0 0.0
2015-Jun-16 18:29N 47°39' W 122°23'0 0.0
2015-Jun-16 17:32N 47°39' W 122°23'0 0.0
2015-Jun-16 17:29N 47°39' W 122°23'0 0.0
2015-Jun-16 16:29N 47°39' W 122°23'0 0.0
2015-Jun-16 15:32N 47°39' W 122°23'0 0.0
2015-Jun-16 15:32N 47°39' W 122°23'0 0.0
2015-Jun-16 14:32N 47°39' W 122°23'0 0.0
2015-Jun-16 14:32N 47°39' W 122°23'0 0.0
2015-Jun-16 13:29N 47°39' W 122°23'0 0.0
2015-Jun-16 13:26N 47°39' W 122°23'0 0.0
2015-Jun-16 12:32N 47°39' W 122°23'0 0.0
2015-Jun-16 12:26N 47°39' W 122°23'0 0.0
2015-Jun-16 11:32N 47°39' W 122°23'0 0.0
2015-Jun-16 11:26N 47°39' W 122°23'0 0.0
2015-Jun-16 10:29N 47°39' W 122°23'0 0.0
2015-Jun-16 10:20N 47°39' W 122°23'0 0.0
2015-Jun-16 09:29N 47°39' W 122°23'0 0.0
2015-Jun-16 09:20N 47°39' W 122°23'0 0.0
2015-Jun-16 08:32N 47°39' W 122°23'0 0.0
2015-Jun-16 08:20N 47°39' W 122°23'0 0.0
2015-Jun-16 07:32N 47°39' W 122°23'0 0.0
2015-Jun-16 07:20N 47°39' W 122°23'0 0.0
2015-Jun-16 06:29N 47°39' W 122°23'0 0.0
2015-Jun-16 06:29N 47°39' W 122°23'0 0.0
2015-Jun-16 05:59N 47°39' W 122°23'0 0.0
2015-Jun-16 05:32N 47°39' W 122°23'0 0.0
2015-Jun-16 04:32N 47°39' W 122°23'0 0.0
2015-Jun-16 04:29N 47°39' W 122°23'0 0.0
2015-Jun-16 03:32N 47°39' W 122°23'0 0.0
2015-Jun-16 03:29N 47°39' W 122°23'0 0.0
2015-Jun-16 02:29N 47°39' W 122°23'0 0.0
2015-Jun-16 02:29N 47°39' W 122°23'0 0.0
2015-Jun-16 01:26N 47°39' W 122°23'0 0.0
2015-Jun-16 01:23N 47°39' W 122°23'0 0.0
2015-Jun-16 00:32N 47°39' W 122°23'0 0.0
2015-Jun-16 00:23N 47°39' W 122°23'0 0.0
2015-Jun-15 23:32N 47°39' W 122°23'0 0.0
2015-Jun-15 23:23N 47°39' W 122°23'0 0.0
2015-Jun-15 21:25N 47°39' W 122°23'0 0.0
2015-Jun-15 21:22N 47°39' W 122°23'0 0.0
2015-Jun-15 20:31N 47°39' W 122°23'0 0.0
2015-Jun-15 19:52N 47°39' W 122°23'0 0.0
2015-Jun-15 19:31N 47°39' W 122°23'0 0.0
2015-Jun-15 19:22N 47°39' W 122°23'0 0.0
2015-Jun-15 18:31N 47°39' W 122°23'0 0.0
2015-Jun-15 18:22N 47°39' W 122°23'0 0.0
2015-Jun-15 17:31N 47°39' W 122°23'0 0.0
2015-Jun-15 17:22N 47°39' W 122°23'0 0.0
2015-Jun-15 16:31N 47°39' W 122°23'0 0.0
2015-Jun-15 16:31N 47°39' W 122°23'0 0.0
2015-Jun-15 15:31N 47°39' W 122°23'0 0.0
2015-Jun-15 15:31N 47°39' W 122°23'0 0.0
2015-Jun-15 14:31N 47°39' W 122°23'0 0.0
2015-Jun-15 14:31N 47°39' W 122°23'0 0.0
2015-Jun-15 13:31N 47°39' W 122°23'0 0.0
2015-Jun-15 13:31N 47°39' W 122°23'0 0.0
2015-Jun-15 12:31N 47°39' W 122°23'0 0.0
2015-Jun-15 12:31N 47°39' W 122°23'0 0.0
2015-Jun-15 11:31N 47°39' W 122°23'0 0.0
2015-Jun-15 11:31N 47°39' W 122°23'0 0.0
2015-Jun-15 10:31N 47°39' W 122°23'0 0.0
2015-Jun-15 10:25N 47°39' W 122°23'0 0.0
2015-Jun-15 09:28N 47°39' W 122°23'0 0.0
2015-Jun-15 09:25N 47°39' W 122°23'0 0.0
2015-Jun-15 08:28N 47°39' W 122°23'0 0.0
2015-Jun-15 08:25N 47°39' W 122°23'0 0.0
2015-Jun-15 07:31N 47°39' W 122°23'0 0.0
2015-Jun-15 07:10N 47°39' W 122°23'0 0.0
2015-Jun-15 06:31N 47°39' W 122°23'0 0.0
2015-Jun-15 06:19N 47°39' W 122°23'0 0.0
2015-Jun-15 05:49N 47°39' W 122°23'0 0.0
2015-Jun-15 05:28N 47°39' W 122°23'0 0.0
2015-Jun-15 04:31N 47°39' W 122°23'0 0.0
2015-Jun-15 04:19N 47°39' W 122°23'0 0.0
2015-Jun-15 03:31N 47°39' W 122°23'0 0.0
2015-Jun-15 03:19N 47°39' W 122°23'0 0.0
2015-Jun-15 02:28N 47°39' W 122°23'0 0.0
2015-Jun-15 02:13N 47°39' W 122°23'0 0.0
2015-Jun-15 01:28N 47°39' W 122°23'0 0.0
2015-Jun-15 01:28N 47°39' W 122°23'0 0.0
2015-Jun-15 00:31N 47°39' W 122°23'0 0.0
2015-Jun-15 00:28N 47°39' W 122°23'0 0.0
2015-Jun-14 23:31N 47°39' W 122°23'0 0.0
2015-Jun-14 23:28N 47°39' W 122°23'0 0.0
2015-Jun-14 22:31N 47°39' W 122°23'0 0.0
2015-Jun-14 22:13N 47°39' W 122°23'0 0.0
2015-Jun-14 21:31N 47°39' W 122°23'0 0.0
2015-Jun-14 21:28N 47°39' W 122°23'0 0.0
2015-Jun-14 20:31N 47°39' W 122°23'0 0.0
2015-Jun-14 20:22N 47°39' W 122°23'0 0.0
2015-Jun-14 19:31N 47°39' W 122°23'0 0.0
2015-Jun-14 19:22N 47°39' W 122°23'0 0.0
2015-Jun-14 18:31N 47°39' W 122°23'0 0.0
2015-Jun-14 18:22N 47°39' W 122°23'0 0.0
2015-Jun-14 17:31N 47°39' W 122°23'0 0.0
2015-Jun-14 16:31N 47°39' W 122°23'0 0.0
2015-Jun-14 16:31N 47°39' W 122°23'0 0.0
2015-Jun-14 15:28N 47°39' W 122°23'0 0.0
2015-Jun-14 15:16N 47°39' W 122°23'0 0.0
2015-Jun-14 14:31N 47°39' W 122°23'0 0.0
2015-Jun-14 14:31N 47°39' W 122°23'0 0.0
2015-Jun-14 13:31N 47°39' W 122°23'0 0.0
2015-Jun-14 13:31N 47°39' W 122°23'0 0.0
2015-Jun-14 12:31N 47°39' W 122°23'0 0.0
2015-Jun-14 12:31N 47°39' W 122°23'0 0.0
2015-Jun-14 11:31N 47°39' W 122°23'0 0.0
2015-Jun-14 11:31N 47°39' W 122°23'0 0.0
2015-Jun-14 10:31N 47°39' W 122°23'0 0.0
2015-Jun-14 10:25N 47°39' W 122°23'0 0.0
2015-Jun-14 09:31N 47°39' W 122°23'0 0.0
2015-Jun-14 09:25N 47°39' W 122°23'0 0.0
2015-Jun-14 08:31N 47°39' W 122°23'0 0.0
2015-Jun-14 08:25N 47°39' W 122°23'0 0.0
2015-Jun-14 07:31N 47°39' W 122°23'0 0.0
2015-Jun-14 07:25N 47°39' W 122°23'0 0.0
2015-Jun-14 06:28N 47°39' W 122°23'0 0.0
2015-Jun-14 06:25N 47°39' W 122°23'0 0.0
2015-Jun-14 06:04N 47°39' W 122°23'0 0.0
2015-Jun-14 05:31N 47°39' W 122°23'0 0.0
2015-Jun-14 04:31N 47°39' W 122°23'0 0.0
2015-Jun-14 04:04N 47°39' W 122°23'0 0.0
2015-Jun-14 03:31N 47°39' W 122°23'0 0.0
2015-Jun-14 03:19N 47°39' W 122°23'0 0.0
2015-Jun-14 02:31N 47°39' W 122°23'0 0.0
2015-Jun-14 02:28N 47°39' W 122°23'0 0.0
2015-Jun-14 01:31N 47°39' W 122°23'0 0.0
2015-Jun-14 01:28N 47°39' W 122°23'0 0.0
2015-Jun-14 00:31N 47°39' W 122°23'0 0.0
2015-Jun-14 00:28N 47°39' W 122°23'0 0.0
2015-Jun-13 23:31N 47°39' W 122°23'0 0.0
2015-Jun-13 23:28N 47°39' W 122°23'0 0.0
2015-Jun-13 22:31N 47°39' W 122°23'0 0.0
2015-Jun-13 22:28N 47°39' W 122°23'0 0.0
2015-Jun-13 21:28N 47°39' W 122°23'0 0.0
2015-Jun-13 21:28N 47°39' W 122°23'0 0.0
2015-Jun-13 20:31N 47°39' W 122°23'0 0.0
2015-Jun-13 20:22N 47°39' W 122°23'  
Track history (hours):
 
Tides and Currents Weather Stations Pressure Air Temp Water Temp Dewpoint Dewpoint Depression Visibility Wind Speed Wind Dir Waves Ship Positions

Coastal Nomad

Owner: Coastal Transportation, Inc., Seattle, WA. More information available from US FCC via Universal Licensing System and Coast Guard Vessel Documentation Center.

Last reported at 2015-Jun-23 20:00 UTC. Time now 2015-Jul-02 08:05 UTC.
Position N 55°42' W 149°00'.
Warning: this ship's position is 8 days out of date.

Length 74 m; draft 4.2 m.

Type: Cargo ship. MMSI: 303683000.

Wind from 120 at 18 knots

Waves 1.0 meters (3 feet)

Barometer 1010.0 mb
Air temperature 11.1 ° C
Visibility: greater than 5.4 NM

Date/timePositionNaut miles runAvg speedWind from/ knotsBaromVisibWave heightAir tempDewpointWater temp
2015-Jun-23 20:00N 55°42' W 149°00'   120 / 181010.0 5.4 1.011.1
2015-Jun-21 00:32N 50°52' W 127°50'1111.8
2015-Jun-20 23:33N 50°48' W 127°33'1111.5
2015-Jun-20 22:33N 50°42' W 127°17'1110.6
2015-Jun-20 21:33N 50°37' W 127°03'1111.2
2015-Jun-20 20:33N 50°33' W 126°46'1312.5
2015-Jun-20 19:30N 50°30' W 126°26'6811.4
2015-Jun-20 13:32N 49°52' W 124°58'1412.2
2015-Jun-20 12:25N 49°43' W 124°41'1212.2
2015-Jun-20 11:28N 49°36' W 124°27'1112.1
2015-Jun-20 10:33N 49°31' W 124°12'1211.9
2015-Jun-20 09:32N 49°23' W 123°57'1111.7
2015-Jun-20 08:34N 49°16' W 123°43'1111.5
2015-Jun-20 07:34N 49°09' W 123°29'1110.9
2015-Jun-20 06:34N 49°02' W 123°17'1111.3
2015-Jun-20 05:33N 48°54' W 123°04'1312.8
2015-Jun-20 04:34N 48°47' W 122°49'1312.5
2015-Jun-20 03:33N 48°34' W 122°45'414.5
2015-Jun-20 03:19N 48°31' W 122°45'1013.6
2015-Jun-20 02:33N 48°21' W 122°45'611.9
2015-Jun-20 02:04N 48°15' W 122°47'5 8.9
2015-Jun-20 01:28N 48°10' W 122°44'7 7.5
2015-Jun-20 00:33N 48°04' W 122°38'1 9.6
2015-Jun-20 00:28N 48°03' W 122°38'8 9.2
2015-Jun-19 23:34N 47°56' W 122°31'0 7.9
2015-Jun-19 23:33N 47°56' W 122°31'1111.1
2015-Jun-19 22:33N 47°46' W 122°26'010.6
2015-Jun-19 22:33N 47°46' W 122°26'6 6.3
2015-Jun-19 21:34N 47°40' W 122°23'0 2.3
2015-Jun-19 21:32N 47°40' W 122°23'1 0.3
2015-Jun-19 19:24N 47°39' W 122°23'0 0.0
2015-Jun-19 18:30N 47°39' W 122°23'0 0.0
2015-Jun-19 18:12N 47°39' W 122°23'0 0.0
2015-Jun-19 17:21N 47°39' W 122°23'0 0.0
2015-Jun-19 17:09N 47°39' W 122°23'0 0.0
2015-Jun-19 16:06N 47°39' W 122°23'0 0.0
2015-Jun-19 16:03N 47°39' W 122°23'0 0.0
2015-Jun-19 15:18N 47°39' W 122°23'0 0.0
2015-Jun-19 15:18N 47°39' W 122°23'0 0.0
2015-Jun-19 14:33N 47°39' W 122°23'0 0.0
2015-Jun-19 13:21N 47°39' W 122°23'0 0.0
2015-Jun-19 12:33N 47°39' W 122°23'0 0.0
2015-Jun-19 11:33N 47°39' W 122°23'0 0.0
2015-Jun-19 11:18N 47°39' W 122°23'0 0.0
2015-Jun-19 10:30N 47°39' W 122°23'0 0.0
2015-Jun-19 09:42N 47°39' W 122°23'0 0.0
2015-Jun-19 09:33N 47°39' W 122°23'0 0.0
2015-Jun-19 09:27N 47°39' W 122°23'0 0.0
2015-Jun-19 08:33N 47°39' W 122°23'0 0.0
2015-Jun-19 08:27N 47°39' W 122°23'0 0.0
2015-Jun-19 07:27N 47°39' W 122°23'0 0.0
2015-Jun-19 07:21N 47°39' W 122°23'0 0.0
2015-Jun-19 06:24N 47°39' W 122°23'0 0.0
2015-Jun-19 05:33N 47°39' W 122°23'0 0.0
2015-Jun-19 05:21N 47°39' W 122°23'0 0.0
2015-Jun-19 04:24N 47°39' W 122°23'0 0.0
2015-Jun-19 03:18N 47°39' W 122°23'0 0.0
2015-Jun-19 02:18N 47°39' W 122°23'0 0.0
2015-Jun-19 01:30N 47°39' W 122°23'0 0.0
2015-Jun-19 00:48N 47°39' W 122°23'0 0.0
2015-Jun-19 00:30N 47°39' W 122°23'0 0.0
2015-Jun-18 23:15N 47°39' W 122°23'0 0.0
2015-Jun-18 23:12N 47°39' W 122°23'0 0.0
2015-Jun-18 22:27N 47°39' W 122°23'0 0.0
2015-Jun-18 22:27N 47°39' W 122°23'0 0.0
2015-Jun-18 21:05N 47°39' W 122°23'0 0.0
2015-Jun-18 15:59N 47°39' W 122°23'0 0.0
2015-Jun-18 14:44N 47°39' W 122°23'0 0.0
2015-Jun-18 14:11N 47°39' W 122°23'0 0.0
2015-Jun-18 11:53N 47°39' W 122°23'0 0.0
2015-Jun-18 05:59N 47°39' W 122°23'0 0.0
2015-Jun-18 05:20N 47°39' W 122°23'0 0.0
2015-Jun-18 02:47N 47°39' W 122°23'0 0.0
2015-Jun-17 17:11N 47°39' W 122°23'0 0.0
2015-Jun-17 15:05N 47°39' W 122°23'0 0.0
2015-Jun-17 14:23N 47°39' W 122°23'0 0.0
2015-Jun-17 13:32N 47°39' W 122°23'0 0.0
2015-Jun-17 12:23N 47°39' W 122°23'0 0.0
2015-Jun-17 11:32N 47°39' W 122°23'0 0.0
2015-Jun-17 11:05N 47°39' W 122°23'0 0.0
2015-Jun-17 10:32N 47°39' W 122°23'0 0.0
2015-Jun-17 10:29N 47°39' W 122°23'0 0.0
2015-Jun-17 09:32N 47°39' W 122°23'0 0.0
2015-Jun-17 08:17N 47°39' W 122°23'0 0.0
2015-Jun-17 07:17N 47°39' W 122°23'0 0.0
2015-Jun-17 03:35N 47°39' W 122°23'0 0.0
2015-Jun-17 03:20N 47°39' W 122°23'0 0.0
2015-Jun-17 02:20N 47°39' W 122°23'0 0.0
2015-Jun-17 00:20N 47°39' W 122°23'0 0.0
2015-Jun-16 23:14N 47°39' W 122°23'0 0.0
2015-Jun-16 23:14N 47°39' W 122°23'0 0.0
2015-Jun-16 22:29N 47°39' W 122°23'0 0.0
2015-Jun-16 22:20N 47°39' W 122°23'0 0.0
2015-Jun-16 20:32N 47°39' W 122°23'0 0.0
2015-Jun-16 20:17N 47°39' W 122°23'0 0.0
2015-Jun-16 19:32N 47°39' W 122°23'0 0.0
2015-Jun-16 19:32N 47°39' W 122°23'0 0.0
2015-Jun-16 18:32N 47°39' W 122°23'0 0.0
2015-Jun-16 18:29N 47°39' W 122°23'0 0.0
2015-Jun-16 17:32N 47°39' W 122°23'0 0.0
2015-Jun-16 17:29N 47°39' W 122°23'0 0.0
2015-Jun-16 16:29N 47°39' W 122°23'0 0.0
2015-Jun-16 15:32N 47°39' W 122°23'0 0.0
2015-Jun-16 15:32N 47°39' W 122°23'0 0.0
2015-Jun-16 14:32N 47°39' W 122°23'0 0.0
2015-Jun-16 14:32N 47°39' W 122°23'0 0.0
2015-Jun-16 13:29N 47°39' W 122°23'0 0.0
2015-Jun-16 13:26N 47°39' W 122°23'0 0.0
2015-Jun-16 12:32N 47°39' W 122°23'0 0.0
2015-Jun-16 12:26N 47°39' W 122°23'0 0.0
2015-Jun-16 11:32N 47°39' W 122°23'0 0.0
2015-Jun-16 11:26N 47°39' W 122°23'0 0.0
2015-Jun-16 10:29N 47°39' W 122°23'0 0.0
2015-Jun-16 10:20N 47°39' W 122°23'0 0.0
2015-Jun-16 09:29N 47°39' W 122°23'0 0.0
2015-Jun-16 09:20N 47°39' W 122°23'0 0.0
2015-Jun-16 08:32N 47°39' W 122°23'0 0.0
2015-Jun-16 08:20N 47°39' W 122°23'0 0.0
2015-Jun-16 07:32N 47°39' W 122°23'0 0.0
2015-Jun-16 07:20N 47°39' W 122°23'0 0.0
2015-Jun-16 06:29N 47°39' W 122°23'0 0.0
2015-Jun-16 06:29N 47°39' W 122°23'0 0.0
2015-Jun-16 05:59N 47°39' W 122°23'0 0.0
2015-Jun-16 05:32N 47°39' W 122°23'0 0.0
2015-Jun-16 04:32N 47°39' W 122°23'0 0.0
2015-Jun-16 04:29N 47°39' W 122°23'0 0.0
2015-Jun-16 03:32N 47°39' W 122°23'0 0.0
2015-Jun-16 03:29N 47°39' W 122°23'0 0.0
2015-Jun-16 02:29N 47°39' W 122°23'0 0.0
2015-Jun-16 02:29N 47°39' W 122°23'0 0.0
2015-Jun-16 01:26N 47°39' W 122°23'0 0.0
2015-Jun-16 01:23N 47°39' W 122°23'0 0.0
2015-Jun-16 00:32N 47°39' W 122°23'0 0.0
2015-Jun-16 00:23N 47°39' W 122°23'0 0.0
2015-Jun-15 23:32N 47°39' W 122°23'0 0.0
2015-Jun-15 23:23N 47°39' W 122°23'0 0.0
2015-Jun-15 21:25N 47°39' W 122°23'0 0.0
2015-Jun-15 21:22N 47°39' W 122°23'0 0.0
2015-Jun-15 20:31N 47°39' W 122°23'0 0.0
2015-Jun-15 19:52N 47°39' W 122°23'0 0.0
2015-Jun-15 19:31N 47°39' W 122°23'0 0.0
2015-Jun-15 19:22N 47°39' W 122°23'0 0.0
2015-Jun-15 18:31N 47°39' W 122°23'0 0.0
2015-Jun-15 18:22N 47°39' W 122°23'0 0.0
2015-Jun-15 17:31N 47°39' W 122°23'0 0.0
2015-Jun-15 17:22N 47°39' W 122°23'0 0.0
2015-Jun-15 16:31N 47°39' W 122°23'0 0.0
2015-Jun-15 16:31N 47°39' W 122°23'0 0.0
2015-Jun-15 15:31N 47°39' W 122°23'0 0.0
2015-Jun-15 15:31N 47°39' W 122°23'0 0.0
2015-Jun-15 14:31N 47°39' W 122°23'0 0.0
2015-Jun-15 14:31N 47°39' W 122°23'0 0.0
2015-Jun-15 13:31N 47°39' W 122°23'0 0.0
2015-Jun-15 13:31N 47°39' W 122°23'0 0.0
2015-Jun-15 12:31N 47°39' W 122°23'0 0.0
2015-Jun-15 12:31N 47°39' W 122°23'0 0.0
2015-Jun-15 11:31N 47°39' W 122°23'0 0.0
2015-Jun-15 11:31N 47°39' W 122°23'0 0.0
2015-Jun-15 10:31N 47°39' W 122°23'0 0.0
2015-Jun-15 10:25N 47°39' W 122°23'0 0.0
2015-Jun-15 09:28N 47°39' W 122°23'0 0.0
2015-Jun-15 09:25N 47°39' W 122°23'0 0.0
2015-Jun-15 08:28N 47°39' W 122°23'0 0.0
2015-Jun-15 08:25N 47°39' W 122°23'0 0.0
2015-Jun-15 07:31N 47°39' W 122°23'0 0.0
2015-Jun-15 07:10N 47°39' W 122°23'0 0.0
2015-Jun-15 06:31N 47°39' W 122°23'0 0.0
2015-Jun-15 06:19N 47°39' W 122°23'0 0.0
2015-Jun-15 05:49N 47°39' W 122°23'0 0.0
2015-Jun-15 05:28N 47°39' W 122°23'0 0.0
2015-Jun-15 04:31N 47°39' W 122°23'0 0.0
2015-Jun-15 04:19N 47°39' W 122°23'0 0.0
2015-Jun-15 03:31N 47°39' W 122°23'0 0.0
2015-Jun-15 03:19N 47°39' W 122°23'0 0.0
2015-Jun-15 02:28N 47°39' W 122°23'0 0.0
2015-Jun-15 02:13N 47°39' W 122°23'0 0.0
2015-Jun-15 01:28N 47°39' W 122°23'0 0.0
2015-Jun-15 01:28N 47°39' W 122°23'0 0.0
2015-Jun-15 00:31N 47°39' W 122°23'0 0.0
2015-Jun-15 00:28N 47°39' W 122°23'0 0.0
2015-Jun-14 23:31N 47°39' W 122°23'0 0.0
2015-Jun-14 23:28N 47°39' W 122°23'0 0.0
2015-Jun-14 22:31N 47°39' W 122°23'0 0.0
2015-Jun-14 22:13N 47°39' W 122°23'0 0.0
2015-Jun-14 21:31N 47°39' W 122°23'0 0.0
2015-Jun-14 21:28N 47°39' W 122°23'0 0.0
2015-Jun-14 20:31N 47°39' W 122°23'0 0.0
2015-Jun-14 20:22N 47°39' W 122°23'0 0.0
2015-Jun-14 19:31N 47°39' W 122°23'0 0.0
2015-Jun-14 19:22N 47°39' W 122°23'0 0.0
2015-Jun-14 18:31N 47°39' W 122°23'0 0.0
2015-Jun-14 18:22N 47°39' W 122°23'0 0.0
2015-Jun-14 17:31N 47°39' W 122°23'0 0.0
2015-Jun-14 16:31N 47°39' W 122°23'0 0.0
2015-Jun-14 16:31N 47°39' W 122°23'0 0.0
2015-Jun-14 15:28N 47°39' W 122°23'0 0.0
2015-Jun-14 15:16N 47°39' W 122°23'0 0.0
2015-Jun-14 14:31N 47°39' W 122°23'0 0.0
2015-Jun-14 14:31N 47°39' W 122°23'0 0.0
2015-Jun-14 13:31N 47°39' W 122°23'0 0.0
2015-Jun-14 13:31N 47°39' W 122°23'0 0.0
2015-Jun-14 12:31N 47°39' W 122°23'0 0.0
2015-Jun-14 12:31N 47°39' W 122°23'0 0.0
2015-Jun-14 11:31N 47°39' W 122°23'0 0.0
2015-Jun-14 11:31N 47°39' W 122°23'0 0.0
2015-Jun-14 10:31N 47°39' W 122°23'0 0.0
2015-Jun-14 10:25N 47°39' W 122°23'0 0.0
2015-Jun-14 09:31N 47°39' W 122°23'0 0.0
2015-Jun-14 09:25N 47°39' W 122°23'0 0.0
2015-Jun-14 08:31N 47°39' W 122°23'0 0.0
2015-Jun-14 08:25N 47°39' W 122°23'0 0.0
2015-Jun-14 07:31N 47°39' W 122°23'0 0.0
2015-Jun-14 07:25N 47°39' W 122°23'0 0.0
2015-Jun-14 06:28N 47°39' W 122°23'0 0.0
2015-Jun-14 06:25N 47°39' W 122°23'0 0.0
2015-Jun-14 06:04N 47°39' W 122°23'0 0.0
2015-Jun-14 05:31N 47°39' W 122°23'0 0.0
2015-Jun-14 04:31N 47°39' W 122°23'0 0.0
2015-Jun-14 04:04N 47°39' W 122°23'0 0.0
2015-Jun-14 03:31N 47°39' W 122°23'0 0.0
2015-Jun-14 03:19N 47°39' W 122°23'0 0.0
2015-Jun-14 02:31N 47°39' W 122°23'0 0.0
2015-Jun-14 02:28N 47°39' W 122°23'0 0.0
2015-Jun-14 01:31N 47°39' W 122°23'0 0.0
2015-Jun-14 01:28N 47°39' W 122°23'0 0.0
2015-Jun-14 00:31N 47°39' W 122°23'0 0.0
2015-Jun-14 00:28N 47°39' W 122°23'0 0.0
2015-Jun-13 23:31N 47°39' W 122°23'0 0.0
2015-Jun-13 23:28N 47°39' W 122°23'0 0.0
2015-Jun-13 22:31N 47°39' W 122°23'0 0.0
2015-Jun-13 22:28N 47°39' W 122°23'0 0.0
2015-Jun-13 21:28N 47°39' W 122°23'0 0.0
2015-Jun-13 21:28N 47°39' W 122°23'0 0.0
2015-Jun-13 20:31N 47°39' W 122°23'0 0.0
2015-Jun-13 20:22N 47°39' W 122°23'  

Dump ship's entire track history